createdAt,value
2017-10-16T00:00:16.827Z,7.50
2017-10-16T00:05:18.615Z,7.40
2017-10-16T00:10:20.421Z,7.40
2017-10-16T00:15:21.502Z,7.30
2017-10-16T00:20:22.573Z,7.40
2017-10-16T00:25:23.634Z,7.40
2017-10-16T00:30:24.714Z,7.50
2017-10-16T00:35:26.534Z,7.20
2017-10-16T00:40:27.613Z,7.20
2017-10-16T00:45:28.722Z,7.10
2017-10-16T00:50:29.806Z,7.10
2017-10-16T00:55:30.900Z,7.20
2017-10-16T01:00:31.994Z,7.00
2017-10-16T01:05:33.089Z,6.90
2017-10-16T01:10:34.157Z,6.80
2017-10-16T01:15:35.265Z,6.90
2017-10-16T01:20:37.061Z,7.10
2017-10-16T01:25:38.158Z,7.10
2017-10-16T01:30:39.221Z,7.20
2017-10-16T01:35:40.289Z,7.60
2017-10-16T01:40:41.345Z,8.10
2017-10-16T01:45:42.457Z,8.30
2017-10-16T01:50:43.597Z,8.20
2017-10-16T01:55:45.412Z,8.40
2017-10-16T02:00:46.499Z,8.40
2017-10-16T02:05:47.589Z,8.40
2017-10-16T02:10:49.390Z,8.50
2017-10-16T02:15:50.521Z,8.40
2017-10-16T02:20:52.309Z,8.70
2017-10-16T02:25:53.360Z,8.70
2017-10-16T02:30:55.166Z,8.90
2017-10-16T02:35:56.241Z,8.90
2017-10-16T02:40:57.295Z,8.90
2017-10-16T02:45:58.344Z,8.70
2017-10-16T02:50:59.428Z,8.60
2017-10-16T02:56:00.502Z,8.50
2017-10-16T03:01:01.546Z,8.40
2017-10-16T03:06:03.441Z,8.40
2017-10-16T03:11:04.531Z,8.30
2017-10-16T03:16:05.618Z,8.40
2017-10-16T03:21:07.673Z,8.50
2017-10-16T03:26:08.725Z,8.50
2017-10-16T03:31:09.777Z,8.60
2017-10-16T03:36:10.849Z,8.50
2017-10-16T03:41:11.921Z,8.50
2017-10-16T03:46:12.977Z,8.50
2017-10-16T03:51:14.048Z,8.50
2017-10-16T03:56:15.105Z,8.40
2017-10-16T04:01:19.774Z,8.30
2017-10-16T04:06:20.821Z,8.30
2017-10-16T04:11:21.885Z,8.30
2017-10-16T04:16:22.957Z,8.20
2017-10-16T04:21:24.012Z,8.20
2017-10-16T04:26:25.067Z,8.10
2017-10-16T04:31:26.142Z,8.00
2017-10-16T04:36:27.957Z,8.00
2017-10-16T04:41:29.004Z,8.00
2017-10-16T04:46:30.083Z,7.90
2017-10-16T04:51:31.173Z,7.90
2017-10-16T04:56:32.225Z,7.80
2017-10-16T05:01:33.306Z,7.80
2017-10-16T05:06:35.146Z,7.80
2017-10-16T05:11:36.209Z,7.80
2017-10-16T05:16:37.341Z,7.80
2017-10-16T05:21:38.417Z,7.80
2017-10-16T05:26:40.221Z,7.90
2017-10-16T05:31:41.275Z,7.90
2017-10-16T05:36:42.366Z,7.90
2017-10-16T05:41:44.185Z,7.80
2017-10-16T05:46:45.317Z,7.80
2017-10-16T05:51:46.621Z,7.90
2017-10-16T05:56:47.705Z,7.90
2017-10-16T06:01:48.772Z,7.90
2017-10-16T06:06:50.613Z,8.10
2017-10-16T06:11:51.697Z,8.10
2017-10-16T06:16:52.794Z,8.10
2017-10-16T06:21:53.865Z,8.30
2017-10-16T06:26:54.958Z,8.30
2017-10-16T06:31:56.032Z,8.40
2017-10-16T06:36:57.114Z,8.50
2017-10-16T06:41:58.958Z,8.70
2017-10-16T06:47:00.070Z,8.70
2017-10-16T06:52:01.153Z,8.80
2017-10-16T06:57:02.199Z,8.70
2017-10-16T07:02:03.259Z,8.80
2017-10-16T07:07:04.318Z,8.90
2017-10-16T07:12:05.400Z,9.00
2017-10-16T07:17:06.530Z,8.90
2017-10-16T07:22:07.621Z,8.90
2017-10-16T07:27:08.726Z,9.10
2017-10-16T07:32:09.799Z,9.30
2017-10-16T07:37:10.881Z,9.40
2017-10-16T07:42:11.971Z,9.50
2017-10-16T07:47:13.062Z,9.50
2017-10-16T07:52:14.138Z,9.70
2017-10-16T07:57:15.206Z,10.20
2017-10-16T08:02:16.281Z,10.50
2017-10-16T08:07:18.090Z,10.80
2017-10-16T08:12:19.905Z,10.70
2017-10-16T08:17:20.997Z,10.70
2017-10-16T08:22:22.093Z,11.10
2017-10-16T08:27:23.904Z,11.60
2017-10-16T08:32:25.805Z,11.60
2017-10-16T08:37:26.949Z,11.70
2017-10-16T08:42:28.021Z,11.90
2017-10-16T08:47:29.809Z,12.10
2017-10-16T08:52:30.890Z,12.10
2017-10-16T08:57:32.720Z,12.20
2017-10-16T09:02:33.797Z,12.20
2017-10-16T09:07:34.881Z,12.50
2017-10-16T09:12:36.694Z,13.20
2017-10-16T09:17:37.793Z,13.20
2017-10-16T09:22:38.884Z,13.50
2017-10-16T09:27:40.762Z,14.00
2017-10-16T09:32:42.594Z,14.30
2017-10-16T09:37:43.697Z,14.30
2017-10-16T09:42:45.537Z,14.70
2017-10-16T09:47:46.697Z,14.70
2017-10-16T09:52:47.784Z,15.00
2017-10-16T09:57:49.636Z,15.30
2017-10-16T10:02:50.753Z,15.30
2017-10-16T10:07:51.838Z,14.60
2017-10-16T10:12:52.938Z,15.50
2017-10-16T10:17:54.757Z,16.30
2017-10-16T10:22:55.863Z,16.30
2017-10-16T10:27:57.677Z,16.00
2017-10-16T10:32:58.752Z,16.00
2017-10-16T10:37:59.801Z,16.80
2017-10-16T10:43:00.888Z,16.50
2017-10-16T10:48:01.973Z,16.00
2017-10-16T10:53:03.102Z,16.70
2017-10-16T10:58:04.226Z,16.80
2017-10-16T11:03:06.106Z,16.60
2017-10-16T11:08:07.169Z,17.20
2017-10-16T11:13:08.221Z,18.40
2017-10-16T11:18:09.312Z,18.00
2017-10-16T11:23:10.369Z,19.00
2017-10-16T11:28:11.447Z,19.60
2017-10-16T11:33:12.533Z,20.40
2017-10-16T11:38:14.344Z,19.90
2017-10-16T11:43:15.426Z,19.90
2017-10-16T11:48:16.516Z,20.00
2017-10-16T11:53:18.346Z,20.50
2017-10-16T11:58:19.421Z,20.50
2017-10-16T12:03:20.485Z,20.90
2017-10-16T12:08:21.549Z,19.80
2017-10-16T12:13:22.637Z,20.60
2017-10-16T12:18:24.485Z,21.90
2017-10-16T12:23:25.603Z,21.90
2017-10-16T12:28:26.709Z,21.90
2017-10-16T12:33:27.796Z,22.10
2017-10-16T12:38:28.889Z,22.00
2017-10-16T12:43:29.973Z,22.10
2017-10-16T12:48:31.074Z,22.20
2017-10-16T12:53:32.164Z,22.30
2017-10-16T12:58:33.253Z,22.30
2017-10-16T13:03:34.346Z,22.40
2017-10-16T13:08:36.393Z,22.10
2017-10-16T13:13:37.482Z,22.10
2017-10-16T13:18:39.345Z,21.40
2017-10-16T13:23:40.463Z,21.40
2017-10-16T13:28:41.536Z,21.40
2017-10-16T13:33:42.631Z,21.70
2017-10-16T13:38:44.472Z,21.40
2017-10-16T13:43:45.558Z,21.40
2017-10-16T13:48:46.684Z,21.30
2017-10-16T13:53:47.787Z,21.50
2017-10-16T13:58:49.630Z,21.60
2017-10-16T14:03:50.723Z,21.60
2017-10-16T14:08:51.857Z,21.40
2017-10-16T14:13:52.946Z,21.60
2017-10-16T14:18:54.773Z,21.90
2017-10-16T14:23:55.845Z,21.90
2017-10-16T14:28:56.916Z,21.60
2017-10-16T14:33:57.977Z,21.20
2017-10-16T14:38:59.070Z,20.80
2017-10-16T14:44:00.161Z,20.70
2017-10-16T14:49:01.239Z,20.60
2017-10-16T14:54:02.318Z,20.60
2017-10-16T14:59:04.129Z,20.40
2017-10-16T15:04:05.184Z,20.30
2017-10-16T15:09:06.260Z,20.30
2017-10-16T15:14:07.348Z,20.10
2017-10-16T15:19:08.433Z,19.90
2017-10-16T15:24:10.241Z,19.70
2017-10-16T15:29:11.314Z,19.70
2017-10-16T15:34:12.423Z,19.30
2017-10-16T15:39:14.216Z,18.50
2017-10-16T15:44:15.302Z,18.50
2017-10-16T15:49:16.409Z,18.10
2017-10-16T15:54:18.233Z,17.40
2017-10-16T15:59:19.317Z,17.30
2017-10-16T16:04:20.405Z,16.90
2017-10-16T16:09:22.235Z,16.20
2017-10-16T16:14:23.326Z,16.20
2017-10-16T16:19:24.409Z,16.00
2017-10-16T16:24:26.229Z,15.30
2017-10-16T16:29:27.333Z,15.30
2017-10-16T16:34:29.150Z,14.60
2017-10-16T16:39:30.225Z,14.60
2017-10-16T16:44:31.318Z,14.30
2017-10-16T16:49:32.381Z,14.10
2017-10-16T16:54:33.482Z,14.00
2017-10-16T16:59:34.538Z,13.90
2017-10-16T17:04:35.609Z,13.80
2017-10-16T17:09:36.677Z,13.50
2017-10-16T17:14:37.737Z,13.20
2017-10-16T17:19:38.845Z,13.10
2017-10-16T17:24:40.657Z,12.90
2017-10-16T17:29:41.728Z,12.80
2017-10-16T17:34:42.785Z,12.90
2017-10-16T17:39:43.816Z,12.60
2017-10-16T17:44:44.863Z,12.40
2017-10-16T17:49:45.918Z,12.10
2017-10-16T17:54:47.713Z,11.80
2017-10-16T17:59:48.768Z,11.70
2017-10-16T18:04:49.845Z,11.80
2017-10-16T18:09:50.918Z,11.70
2017-10-16T18:14:52.003Z,11.50
2017-10-16T18:19:53.825Z,11.50
2017-10-16T18:24:54.962Z,11.50
2017-10-16T18:29:56.801Z,11.20
2017-10-16T18:34:57.860Z,11.20
2017-10-16T18:39:58.942Z,11.00
2017-10-16T18:45:00.773Z,10.60
2017-10-16T18:50:01.880Z,10.60
2017-10-16T18:55:03.729Z,10.50
2017-10-16T19:00:04.820Z,10.40
2017-10-16T19:05:06.662Z,10.30
2017-10-16T19:10:07.776Z,10.30
2017-10-16T19:15:08.849Z,10.30
2017-10-16T19:20:10.073Z,10.30
2017-10-16T19:25:11.227Z,10.10
2017-10-16T19:30:13.072Z,10.30
2017-10-16T19:35:14.142Z,10.30
2017-10-16T19:40:15.252Z,10.30
2017-10-16T19:45:16.442Z,10.20
2017-10-16T19:50:17.529Z,10.20
2017-10-16T19:55:18.601Z,10.10
2017-10-16T20:00:20.411Z,9.80
2017-10-16T20:05:21.473Z,9.80
2017-10-16T20:10:22.589Z,9.70
2017-10-16T20:15:23.693Z,9.50
2017-10-16T20:20:24.878Z,9.40
2017-10-16T20:25:25.962Z,9.50
2017-10-16T20:30:27.061Z,9.40
2017-10-16T20:35:28.161Z,9.40
2017-10-16T20:40:29.249Z,9.30
2017-10-16T20:45:31.064Z,9.40
2017-10-16T20:50:32.157Z,9.40
2017-10-16T20:55:33.246Z,9.30
2017-10-16T21:00:35.069Z,8.90
2017-10-16T21:05:36.154Z,8.90
2017-10-16T21:10:37.237Z,8.90
2017-10-16T21:15:39.074Z,8.80
2017-10-16T21:20:40.143Z,8.80
2017-10-16T21:25:41.197Z,8.80
2017-10-16T21:30:42.301Z,8.80
2017-10-16T21:35:44.153Z,8.70
2017-10-16T21:40:45.241Z,8.70
2017-10-16T21:45:46.315Z,8.60
2017-10-16T21:50:47.409Z,8.50
2017-10-16T21:55:48.514Z,8.50
2017-10-16T22:00:49.623Z,8.60
2017-10-16T22:05:50.719Z,8.60
2017-10-16T22:10:52.545Z,8.30
2017-10-16T22:15:53.613Z,8.20
2017-10-16T22:20:54.705Z,8.10
2017-10-16T22:25:55.789Z,8.00
2017-10-16T22:30:56.882Z,7.90
2017-10-16T22:35:57.956Z,7.80
2017-10-16T22:40:59.037Z,8.00
2017-10-16T22:46:00.097Z,7.70
2017-10-16T22:51:05.149Z,7.70
2017-10-16T22:56:06.282Z,7.60
2017-10-16T23:01:07.370Z,7.50
2017-10-16T23:06:09.204Z,7.40
2017-10-16T23:11:10.313Z,7.40
2017-10-16T23:16:11.454Z,7.30
2017-10-16T23:21:12.541Z,7.20
2017-10-16T23:26:14.382Z,7.40
2017-10-16T23:31:15.466Z,7.40
2017-10-16T23:36:17.289Z,7.10
2017-10-16T23:41:18.379Z,7.10
2017-10-16T23:46:19.481Z,6.90
2017-10-16T23:51:20.568Z,6.90
2017-10-16T23:56:21.655Z,6.80
